Time;durP1;ratioP1;P1;durP2;ratioP2;P2;SDS_P1;SDS_P2;PMS_P1;PMS_P2;Temp;Humidity;BMP_temperature;BMP_pressure;BME280_temperature;BME280_humidity;BME280_pressure;Samples;Min_cycle;Max_cycle;Signal;HPM_P1;HPM_P2
2021/03/26 00:01:30;;;;;;;2.97;1.57;;;13.00;99.70;;;;;;5123190;28;20453;-39
2021/03/26 00:04:03;;;;;;;4.10;1.90;;;13.00;99.90;;;;;;5124050;28;20507;-39
2021/03/26 00:06:36;;;;;;;4.20;1.80;;;12.90;99.90;;;;;;5122565;28;20457;-38
2021/03/26 00:09:06;;;;;;;3.23;2.30;;;12.90;99.90;;;;;;5121899;28;20549;-38
2021/03/26 00:11:38;;;;;;;4.47;2.00;;;13.10;99.50;;;;;;5121849;28;20464;-39
2021/03/26 00:14:08;;;;;;;2.27;2.07;;;13.10;99.90;;;;;;5119970;28;20445;-38
2021/03/26 00:16:38;;;;;;;2.60;2.20;;;12.90;99.60;;;;;;5123090;28;20484;-38
2021/03/26 00:19:09;;;;;;;6.37;1.93;;;13.00;98.90;;;;;;5121611;28;20540;-37
2021/03/26 00:21:39;;;;;;;3.43;2.10;;;12.90;99.30;;;;;;5120252;28;20461;-38
2021/03/26 00:24:10;;;;;;;2.70;1.80;;;12.90;98.40;;;;;;5121826;28;20485;-38
2021/03/26 00:26:43;;;;;;;2.03;1.80;;;12.90;98.90;;;;;;5117391;28;20468;-39
2021/03/26 00:29:21;;;;;;;2.77;1.57;;;12.90;99.10;;;;;;5122474;28;20482;-39
2021/03/26 00:31:51;;;;;;;5.13;2.53;;;13.10;97.80;;;;;;5122304;28;20515;-40
2021/03/26 00:34:22;;;;;;;3.13;2.03;;;13.10;97.90;;;;;;5121375;28;20784;-38
2021/03/26 00:36:52;;;;;;;4.63;2.30;;;13.00;97.20;;;;;;5117961;28;20457;-38
2021/03/26 00:39:22;;;;;;;2.53;1.70;;;13.00;98.50;;;;;;5126071;28;20485;-38
2021/03/26 00:41:54;;;;;;;4.07;1.83;;;12.90;97.90;;;;;;5123919;28;20483;-38
2021/03/26 00:44:24;;;;;;;3.00;2.40;;;12.90;98.70;;;;;;5115406;28;20449;-39
2021/03/26 00:46:54;;;;;;;3.00;2.00;;;13.00;97.40;;;;;;5125525;28;20452;-38
2021/03/26 00:49:24;;;;;;;5.00;1.80;;;13.00;97.90;;;;;;5125293;28;20499;-39
2021/03/26 00:51:54;;;;;;;5.47;1.93;;;13.00;98.90;;;;;;5114428;28;20499;-38
2021/03/26 00:54:24;;;;;;;2.33;1.77;;;13.00;99.40;;;;;;5109771;28;20479;-38
2021/03/26 00:57:01;;;;;;;4.27;2.63;;;12.90;99.00;;;;;;5123539;28;20453;-39
2021/03/26 00:59:50;;;;;;;2.90;2.27;;;12.80;99.20;;;;;;5125791;28;20478;-39
2021/03/26 01:02:20;;;;;;;4.63;2.10;;;12.80;99.90;;;;;;5124716;28;20448;-38
2021/03/26 01:04:51;;;;;;;3.53;2.50;;;12.80;99.40;;;;;;5125499;28;20456;-38
2021/03/26 01:07:21;;;;;;;3.20;2.03;;;12.80;98.50;;;;;;5125506;28;20433;-38
2021/03/26 01:09:52;;;;;;;4.33;2.30;;;12.70;98.20;;;;;;5125541;28;20572;-39
2021/03/26 01:12:23;;;;;;;6.00;2.20;;;12.70;99.00;;;;;;5124467;28;20513;-39
2021/03/26 01:14:53;;;;;;;3.13;2.73;;;12.60;99.40;;;;;;5118846;28;20572;-39
2021/03/26 01:17:23;;;;;;;3.67;2.30;;;12.60;99.60;;;;;;5125431;28;20499;-39
2021/03/26 01:19:53;;;;;;;2.50;2.30;;;12.70;99.30;;;;;;5124845;28;20468;-38
2021/03/26 01:22:23;;;;;;;7.70;3.30;;;12.80;99.80;;;;;;5124746;28;20678;-39
2021/03/26 01:24:53;;;;;;;4.80;2.70;;;12.60;99.90;;;;;;5124802;28;20442;-38
2021/03/26 01:27:24;;;;;;;5.43;2.83;;;12.60;99.50;;;;;;5124133;28;20456;-39
2021/03/26 01:30:09;;;;;;;3.30;1.83;;;12.60;99.90;;;;;;5125064;28;20448;-39
2021/03/26 01:32:39;;;;;;;6.20;2.37;;;12.70;99.50;;;;;;5123996;28;20822;-39
2021/03/26 01:35:11;;;;;;;4.90;2.50;;;12.60;99.30;;;;;;5124431;28;20843;-39
2021/03/26 01:37:41;;;;;;;3.70;2.70;;;12.70;99.90;;;;;;5123808;28;20530;-39
2021/03/26 01:40:17;;;;;;;4.97;2.70;;;12.60;99.90;;;;;;5124323;28;20460;-39
2021/03/26 01:42:48;;;;;;;3.13;2.60;;;12.40;99.90;;;;;;5123689;28;20583;-38
2021/03/26 01:45:24;;;;;;;4.43;2.40;;;12.40;99.90;;;;;;5124530;28;20528;-39
2021/03/26 01:47:59;;;;;;;4.30;2.63;;;12.30;99.90;;;;;;5122970;28;20500;-39
2021/03/26 01:50:32;;;;;;;4.20;2.40;;;12.20;99.90;;;;;;5120135;28;20510;-39
2021/03/26 01:53:02;;;;;;;5.67;2.07;;;12.20;99.90;;;;;;5124472;28;20466;-38
2021/03/26 01:55:35;;;;;;;3.40;2.13;;;12.30;99.90;;;;;;5124392;28;20512;-39
2021/03/26 01:58:07;;;;;;;4.07;2.20;;;12.20;99.90;;;;;;5096346;27;20534;-37
2021/03/26 02:00:42;;;;;;;3.50;2.30;;;12.30;99.90;;;;;;5121659;28;20461;-38
2021/03/26 02:03:17;;;;;;;7.30;1.93;;;12.20;99.90;;;;;;5123741;28;20485;-38
2021/03/26 02:05:50;;;;;;;3.07;2.10;;;12.10;99.90;;;;;;5123258;28;20459;-38
2021/03/26 02:08:24;;;;;;;5.10;2.10;;;12.00;99.90;;;;;;5123986;28;20491;-37
2021/03/26 02:11:03;;;;;;;4.13;2.13;;;12.00;99.90;;;;;;5123840;28;20560;-38
2021/03/26 02:13:45;;;;;;;2.67;2.33;;;11.90;99.90;;;;;;5123491;28;20457;-38
2021/03/26 02:16:26;;;;;;;4.40;2.23;;;11.80;99.90;;;;;;5123227;28;20453;-38
2021/03/26 02:18:56;;;;;;;3.43;3.13;;;11.70;99.90;;;;;;5124002;27;20496;-38
2021/03/26 02:21:29;;;;;;;6.20;4.83;;;11.80;99.90;;;;;;5123490;28;20477;-38
2021/03/26 02:24:05;;;;;;;5.20;2.40;;;11.70;99.90;;;;;;5124444;28;20442;-37
2021/03/26 02:26:40;;;;;;;2.70;2.10;;;11.70;99.90;;;;;;5122671;28;20440;-37
2021/03/26 02:29:24;;;;;;;4.40;1.57;;;11.70;99.90;;;;;;5123442;28;20770;-37
2021/03/26 02:31:57;;;;;;;4.37;2.07;;;11.70;99.90;;;;;;5123426;28;20452;-38
2021/03/26 02:34:29;;;;;;;2.10;1.47;;;11.50;99.90;;;;;;5123380;28;20479;-38
2021/03/26 02:37:03;;;;;;;5.60;2.40;;;11.50;99.90;;;;;;5121370;28;20510;-37
2021/03/26 02:39:40;;;;;;;4.27;2.10;;;11.40;99.90;;;;;;5122991;28;20496;-38
2021/03/26 02:42:18;;;;;;;3.90;2.07;;;11.50;99.90;;;;;;5120408;28;20485;-37
2021/03/26 02:44:57;;;;;;;4.17;1.93;;;11.50;99.90;;;;;;5123393;28;20445;-38
2021/03/26 02:47:36;;;;;;;3.77;2.10;;;11.40;99.90;;;;;;5123014;28;20449;-38
2021/03/26 02:50:10;;;;;;;4.30;2.10;;;11.40;99.90;;;;;;5113613;28;20452;-38
2021/03/26 02:52:50;;;;;;;3.90;2.47;;;11.40;99.90;;;;;;5118107;28;20505;-38
2021/03/26 02:55:25;;;;;;;3.37;2.73;;;11.40;99.90;;;;;;5124307;28;20524;-37
2021/03/26 02:58:00;;;;;;;5.30;2.00;;;11.50;99.90;;;;;;5122266;28;20552;-38
2021/03/26 03:00:36;;;;;;;5.20;2.60;;;11.60;99.90;;;;;;5122286;28;20810;-37
2021/03/26 03:03:09;;;;;;;3.13;1.93;;;11.50;99.90;;;;;;5120130;28;20474;-38
2021/03/26 03:05:42;;;;;;;2.50;1.63;;;11.50;99.90;;;;;;5122889;28;20453;-38
2021/03/26 03:08:17;;;;;;;4.47;2.07;;;11.40;99.90;;;;;;5122716;28;20568;-38
2021/03/26 03:10:53;;;;;;;3.22;1.90;;;11.50;99.90;;;;;;5113691;28;20468;-38
2021/03/26 03:13:31;;;;;;;3.40;2.40;;;11.40;99.90;;;;;;5121096;28;20201;-38
2021/03/26 03:16:07;;;;;;;5.00;2.10;;;11.30;99.90;;;;;;5112203;28;20464;-37
2021/03/26 03:18:40;;;;;;;6.32;3.63;;;11.20;99.90;;;;;;5122462;28;20487;-37
2021/03/26 03:21:17;;;;;;;3.63;3.20;;;11.30;99.90;;;;;;5114577;28;20206;-38
2021/03/26 03:23:52;;;;;;;3.10;1.90;;;11.20;99.90;;;;;;5120616;28;20571;-38
2021/03/26 03:26:32;;;;;;;3.45;2.60;;;11.20;99.90;;;;;;5120507;28;20200;-38
2021/03/26 03:29:11;;;;;;;3.83;3.43;;;11.20;99.90;;;;;;5121487;28;20315;-37
2021/03/26 03:31:50;;;;;;;8.18;3.08;;;11.20;99.90;;;;;;5122177;28;20462;-38
2021/03/26 03:34:30;;;;;;;3.92;3.53;;;11.00;99.90;;;;;;5122860;28;20250;-37
2021/03/26 03:37:10;;;;;;;6.93;3.77;;;10.70;99.90;;;;;;5122660;28;20629;-37
2021/03/26 03:39:48;;;;;;;5.55;3.45;;;10.60;99.90;;;;;;5122727;28;20494;-38
2021/03/26 03:42:26;;;;;;;4.20;3.65;;;10.40;99.90;;;;;;5121689;28;20231;-38
2021/03/26 03:45:19;;;;;;;4.68;2.63;;;10.30;99.90;;;;;;5121826;28;20209;-38
2021/03/26 03:47:56;;;;;;;7.03;2.90;;;10.30;99.90;;;;;;5122756;28;20206;-38
2021/03/26 03:50:32;;;;;;;5.05;2.47;;;10.20;99.90;;;;;;5122059;28;20225;-38
2021/03/26 03:53:19;;;;;;;6.13;3.07;;;10.10;99.90;;;;;;5119145;28;20212;-38
2021/03/26 03:55:53;;;;;;;7.80;3.40;;;10.10;99.90;;;;;;5122417;28;20461;-38
2021/03/26 03:58:29;;;;;;;6.23;3.13;;;10.10;99.90;;;;;;5121852;28;20484;-38
2021/03/26 04:01:05;;;;;;;7.43;2.42;;;10.00;99.90;;;;;;5122407;28;20496;-38
2021/03/26 04:03:39;;;;;;;4.40;2.70;;;10.00;99.90;;;;;;5122177;28;20205;-38
2021/03/26 04:06:13;;;;;;;4.18;3.40;;;10.00;99.90;;;;;;5122009;28;20304;-38
2021/03/26 04:08:45;;;;;;;8.43;3.30;;;10.10;99.90;;;;;;5122514;28;20231;-38
2021/03/26 04:11:19;;;;;;;6.15;3.20;;;10.10;99.90;;;;;;5122157;28;20231;-38
2021/03/26 04:13:59;;;;;;;4.68;3.50;;;10.10;99.90;;;;;;5126175;28;20275;-39
2021/03/26 04:16:30;;;;;;;6.38;3.10;;;10.10;99.90;;;;;;5121161;28;20270;-38
2021/03/26 04:19:07;;;;;;;4.75;3.10;;;10.10;99.90;;;;;;5125613;28;20288;-38
2021/03/26 04:21:39;;;;;;;6.17;4.33;;;10.10;99.90;;;;;;5124555;28;20261;-38
2021/03/26 04:24:19;;;;;;;7.60;4.32;;;10.10;99.90;;;;;;5124069;28;20504;-38
2021/03/26 04:26:53;;;;;;;7.20;4.80;;;10.10;99.90;;;;;;5125344;28;20216;-38
2021/03/26 04:29:29;;;;;;;6.07;5.25;;;10.10;99.90;;;;;;5116345;28;20458;-38
2021/03/26 04:32:09;;;;;;;6.50;4.30;;;10.20;99.90;;;;;;5125140;28;20302;-38
2021/03/26 04:34:41;;;;;;;9.40;4.50;;;10.20;99.90;;;;;;5126039;28;20452;-38
2021/03/26 04:37:19;;;;;;;6.57;4.22;;;10.30;99.90;;;;;;5123599;28;20464;-38
2021/03/26 04:39:55;;;;;;;6.15;4.30;;;10.30;99.90;;;;;;5122074;28;20548;-39
2021/03/26 04:42:32;;;;;;;6.30;3.97;;;10.30;99.90;;;;;;5121773;28;20241;-38
2021/03/26 04:45:11;;;;;;;8.98;4.55;;;10.30;99.90;;;;;;5117643;28;20235;-38
2021/03/26 04:47:45;;;;;;;4.32;3.35;;;10.30;99.90;;;;;;5125385;28;20293;-38
2021/03/26 04:50:21;;;;;;;5.63;3.67;;;10.30;99.90;;;;;;5124566;28;20209;-38
2021/03/26 04:52:57;;;;;;;8.93;3.65;;;10.30;99.90;;;;;;5124903;28;20647;-38
2021/03/26 04:55:32;;;;;;;9.05;4.22;;;10.30;99.90;;;;;;5125730;28;20214;-38
2021/03/26 04:58:07;;;;;;;7.18;4.00;;;10.30;99.90;;;;;;5109894;28;20203;-38
2021/03/26 05:00:44;;;;;;;6.68;4.10;;;10.30;99.90;;;;;;5124941;28;20258;-38
2021/03/26 05:03:20;;;;;;;7.57;3.67;;;10.20;99.90;;;;;;5124880;28;20269;-38
2021/03/26 05:05:57;;;;;;;5.95;3.28;;;10.10;99.90;;;;;;5125029;28;20514;-38
2021/03/26 05:08:28;;;;;;;8.75;3.90;;;10.00;99.90;;;;;;5124959;28;20213;-39
2021/03/26 05:11:01;;;;;;;11.50;4.50;;;10.00;99.90;;;;;;5124926;28;20232;-39
2021/03/26 05:13:37;;;;;;;10.10;4.38;;;10.00;99.90;;;;;;5123421;28;20219;-38
2021/03/26 05:16:11;;;;;;;8.30;3.60;;;10.00;99.90;;;;;;5125131;28;20281;-36
2021/03/26 05:18:46;;;;;;;9.52;3.92;;;9.90;99.90;;;;;;5124254;28;20488;-38
2021/03/26 05:21:21;;;;;;;8.10;4.15;;;9.90;99.90;;;;;;5124354;28;20247;-38
2021/03/26 05:23:54;;;;;;;4.97;4.05;;;10.00;99.90;;;;;;5123671;28;20206;-38
2021/03/26 05:26:24;;;;;;;7.70;4.13;;;9.90;99.90;;;;;;5118889;28;20208;-38
2021/03/26 05:28:55;;;;;;;6.05;4.15;;;9.90;99.90;;;;;;5119395;28;20305;-39
2021/03/26 05:31:45;;;;;;;8.40;3.92;;;9.90;99.90;;;;;;5125003;28;20329;-39
2021/03/26 05:34:22;;;;;;;7.72;4.43;;;9.70;99.90;;;;;;5123326;28;20261;-38
2021/03/26 05:37:03;;;;;;;6.38;4.13;;;9.70;99.90;;;;;;5124004;28;20204;-39
2021/03/26 05:39:36;;;;;;;8.70;4.00;;;9.60;99.90;;;;;;5124759;28;20236;-38
2021/03/26 05:42:35;;;;;;;7.78;4.25;;;9.40;99.90;;;;;;5123446;28;20287;-38
2021/03/26 05:45:17;;;;;;;8.20;4.20;;;9.30;99.90;;;;;;5123449;28;20194;-38
2021/03/26 05:48:12;;;;;;;6.15;4.35;;;9.10;99.90;;;;;;5124723;28;20298;-38
2021/03/26 05:50:54;;;;;;;8.07;4.25;;;9.00;99.90;;;;;;5124476;28;20270;-38
2021/03/26 05:53:32;;;;;;;7.63;3.85;;;8.90;99.90;;;;;;5124549;28;20247;-38
2021/03/26 05:56:23;;;;;;;5.97;4.00;;;8.90;99.90;;;;;;5116596;28;20201;-39
2021/03/26 05:59:09;;;;;;;7.13;4.40;;;8.90;99.90;;;;;;5124656;28;20212;-38
2021/03/26 06:01:58;;;;;;;10.13;3.95;;;8.70;99.90;;;;;;5124715;28;20312;-38
2021/03/26 06:05:10;;;;;;;14.35;4.70;;;8.60;99.90;;;;;;5119714;28;20201;-38
2021/03/26 06:08:14;;;;;;;6.72;3.45;;;8.50;99.90;;;;;;5103784;28;20207;-38
2021/03/26 06:11:07;;;;;;;4.90;3.50;;;8.40;99.90;;;;;;5124979;28;20215;-38
2021/03/26 06:14:08;;;;;;;8.88;3.65;;;8.30;99.90;;;;;;5123796;28;20211;-38
2021/03/26 06:16:48;;;;;;;4.68;3.90;;;8.10;99.90;;;;;;5124289;28;20207;-38
2021/03/26 06:19:56;;;;;;;10.45;5.72;;;8.00;99.90;;;;;;5123311;28;20231;-38
2021/03/26 06:22:59;;;;;;;12.10;4.70;;;7.90;99.90;;;;;;5119206;28;20233;-38
2021/03/26 06:25:56;;;;;;;7.22;4.18;;;7.90;99.90;;;;;;5114934;28;20325;-38
2021/03/26 06:28:37;;;;;;;12.93;5.20;;;7.80;99.90;;;;;;5123257;28;20208;-38
2021/03/26 06:31:38;;;;;;;9.20;4.78;;;7.70;99.90;;;;;;5118042;28;20219;-38
2021/03/26 06:34:33;;;;;;;9.05;4.43;;;7.60;99.90;;;;;;5114832;28;20278;-38
2021/03/26 06:37:32;;;;;;;10.43;4.47;;;7.50;99.90;;;;;;5107368;28;20276;-38
2021/03/26 06:40:30;;;;;;;6.47;4.00;;;7.50;99.90;;;;;;5115724;28;20284;-38
2021/03/26 06:43:18;;;;;;;10.02;5.20;;;7.50;99.90;;;;;;5122452;28;20223;-38
2021/03/26 06:46:09;;;;;;;7.28;4.60;;;7.30;99.90;;;;;;5122858;28;20620;-38
2021/03/26 06:48:54;;;;;;;10.15;4.57;;;7.40;99.90;;;;;;5122990;28;20208;-38
2021/03/26 06:51:49;;;;;;;7.97;6.03;;;7.40;99.90;;;;;;5123514;28;20633;-38
2021/03/26 06:54:49;;;;;;;11.80;5.32;;;7.40;99.90;;;;;;5123122;28;20253;-38
2021/03/26 06:57:47;;;;;;;7.60;5.30;;;7.40;99.90;;;;;;5112022;28;20230;-38
2021/03/26 07:00:56;;;;;;;9.45;4.90;;;7.40;99.90;;;;;;5117606;28;20227;-38
2021/03/26 07:04:04;;;;;;;10.65;4.72;;;7.40;99.90;;;;;;5117682;28;20343;-38
2021/03/26 07:07:03;;;;;;;10.13;5.60;;;7.40;99.90;;;;;;5091507;28;20211;-38
2021/03/26 07:09:58;;;;;;;13.48;5.75;;;7.40;99.90;;;;;;5118184;28;20208;-38
2021/03/26 07:12:43;;;;;;;7.13;5.32;;;7.40;99.90;;;;;;5116472;28;20323;-38
2021/03/26 07:15:17;;;;;;;9.38;5.57;;;7.40;99.90;;;;;;5114538;28;20225;-37
2021/03/26 07:18:20;;;;;;;9.27;5.00;;;7.40;99.90;;;;;;5122567;28;20203;-38
2021/03/26 07:21:11;;;;;;;8.60;5.18;;;7.50;99.90;;;;;;5122157;28;20191;-38
2021/03/26 07:24:37;;;;;;;7.40;5.70;;;7.30;99.90;;;;;;5123896;28;20204;-38
2021/03/26 07:27:23;;;;;;;6.80;4.93;;;7.40;99.90;;;;;;5112440;28;20196;-38
2021/03/26 07:30:16;;;;;;;10.90;5.35;;;7.40;99.90;;;;;;5123653;28;20269;-38
2021/03/26 07:33:18;;;;;;;8.20;4.80;;;7.30;99.90;;;;;;5120977;28;20231;-38
2021/03/26 07:36:27;;;;;;;9.30;5.22;;;7.20;99.90;;;;;;5040364;28;20206;-38
2021/03/26 07:39:20;;;;;;;6.93;4.75;;;7.10;99.90;;;;;;5028236;28;20241;-38
2021/03/26 07:42:35;;;;;;;11.00;5.30;;;7.10;99.90;;;;;;5039222;28;20432;-37
2021/03/26 07:45:37;;;;;;;9.43;5.32;;;7.10;99.90;;;;;;4995938;28;20984;-38
2021/03/26 07:48:26;;;;;;;8.27;5.10;;;7.00;99.90;;;;;;5002336;28;20200;-38
2021/03/26 07:51:00;;;;;;;12.73;5.47;;;7.10;99.90;;;;;;5004372;28;20228;-37
2021/03/26 07:53:46;;;;;;;8.20;6.38;;;7.00;99.90;;;;;;5004776;28;20424;-38
2021/03/26 07:56:41;;;;;;;9.18;6.35;;;7.00;99.90;;;;;;5002570;28;20207;-38
2021/03/26 07:59:51;;;;;;;7.63;5.57;;;7.10;99.90;;;;;;4993555;28;20636;-38
2021/03/26 08:02:39;;;;;;;7.85;5.00;;;7.20;99.90;;;;;;5003916;28;20207;-38
2021/03/26 08:05:20;;;;;;;12.57;6.15;;;7.30;99.90;;;;;;4991384;28;20227;-38
2021/03/26 08:08:09;;;;;;;8.45;5.45;;;7.30;99.90;;;;;;5004011;28;20223;-38
2021/03/26 08:10:47;;;;;;;8.68;6.20;;;7.40;99.90;;;;;;5010291;28;20202;-38
2021/03/26 08:13:58;;;;;;;9.15;5.25;;;7.40;99.90;;;;;;5048083;28;20237;-38
2021/03/26 08:17:03;;;;;;;6.75;5.05;;;7.40;99.90;;;;;;5096518;28;20321;-38
2021/03/26 08:19:46;;;;;;;9.70;4.93;;;7.50;99.90;;;;;;5087918;28;20227;-37
2021/03/26 08:22:23;;;;;;;9.02;5.22;;;7.50;99.90;;;;;;5126263;28;20252;-38
2021/03/26 08:25:06;;;;;;;5.80;4.65;;;7.50;99.90;;;;;;5124211;28;20505;-38
2021/03/26 08:27:44;;;;;;;6.18;4.63;;;7.60;99.90;;;;;;5118194;28;20249;-38
2021/03/26 08:30:41;;;;;;;9.32;5.07;;;7.50;99.90;;;;;;5126523;28;20261;-38
2021/03/26 08:33:39;;;;;;;8.18;4.85;;;7.50;99.90;;;;;;5114208;28;20200;-38
2021/03/26 08:36:32;;;;;;;8.27;5.35;;;7.50;99.90;;;;;;5092058;28;20208;-38
2021/03/26 08:39:46;;;;;;;7.85;5.07;;;7.50;99.90;;;;;;5113029;28;20224;-38
2021/03/26 08:42:22;;;;;;;9.07;5.00;;;7.60;99.90;;;;;;5041907;28;20295;-38
2021/03/26 08:44:58;;;;;;;9.77;5.30;;;7.70;99.90;;;;;;5041964;28;20202;-38
2021/03/26 08:47:34;;;;;;;11.48;5.93;;;7.70;99.90;;;;;;5040928;28;20274;-38
2021/03/26 08:50:28;;;;;;;6.40;4.50;;;7.70;99.90;;;;;;5041897;28;20595;-38
2021/03/26 08:53:14;;;;;;;10.85;5.15;;;7.80;99.90;;;;;;5041542;28;20217;-38
2021/03/26 08:56:11;;;;;;;7.35;4.60;;;7.80;99.90;;;;;;5041644;28;20212;-37
2021/03/26 08:59:08;;;;;;;7.28;4.75;;;7.90;99.90;;;;;;5039191;28;20284;-38
2021/03/26 09:02:13;;;;;;;10.85;5.80;;;7.90;99.90;;;;;;5041775;28;20203;-38
2021/03/26 09:04:55;;;;;;;8.77;5.82;;;7.80;99.90;;;;;;5040886;28;20241;-38
2021/03/26 09:07:41;;;;;;;15.07;5.82;;;7.70;99.90;;;;;;5041383;28;20206;-38
2021/03/26 09:10:34;;;;;;;9.63;5.43;;;7.60;99.90;;;;;;5042446;28;20214;-38
2021/03/26 09:13:16;;;;;;;8.55;4.75;;;7.70;99.90;;;;;;5025031;28;20238;-38
2021/03/26 09:16:03;;;;;;;8.02;4.80;;;7.80;99.90;;;;;;5041671;28;20203;-38
2021/03/26 09:18:55;;;;;;;8.85;4.13;;;7.80;99.90;;;;;;5110424;28;20215;-38
2021/03/26 09:21:43;;;;;;;6.90;4.22;;;7.80;99.90;;;;;;5110866;28;20257;-38
2021/03/26 09:24:41;;;;;;;10.13;5.60;;;7.90;99.90;;;;;;5124464;28;20223;-38
2021/03/26 09:27:35;;;;;;;5.78;4.63;;;7.90;99.90;;;;;;5108597;28;20203;-38
2021/03/26 09:30:19;;;;;;;6.63;4.93;;;7.80;99.90;;;;;;5124740;28;20308;-38
2021/03/26 09:32:53;;;;;;;7.05;4.60;;;7.90;99.90;;;;;;5123721;28;20206;-38
2021/03/26 09:35:28;;;;;;;11.77;5.45;;;7.90;99.90;;;;;;5124387;28;20196;-38
2021/03/26 09:38:06;;;;;;;12.65;5.35;;;7.90;99.90;;;;;;5123911;28;20308;-38
2021/03/26 09:40:46;;;;;;;7.68;4.85;;;8.00;99.90;;;;;;5124189;28;20229;-38
2021/03/26 09:43:24;;;;;;;6.77;4.77;;;8.00;99.90;;;;;;5035579;28;2028419;-38
2021/03/26 09:46:06;;;;;;;7.57;4.90;;;8.10;99.90;;;;;;5124962;28;20209;-38
2021/03/26 09:49:01;;;;;;;13.10;5.50;;;8.00;99.90;;;;;;5122638;28;20639;-38
2021/03/26 09:51:46;;;;;;;8.40;5.35;;;8.10;99.90;;;;;;5125050;28;20207;-38
2021/03/26 09:54:39;;;;;;;7.90;5.15;;;8.10;99.90;;;;;;5125294;28;20208;-38
2021/03/26 09:57:43;;;;;;;8.32;5.32;;;8.20;99.90;;;;;;5105627;28;20253;-38
2021/03/26 10:00:43;;;;;;;8.57;5.53;;;8.10;99.90;;;;;;5125292;28;20338;-38
2021/03/26 10:03:28;;;;;;;6.97;5.00;;;8.10;99.90;;;;;;5111825;28;20204;-38
2021/03/26 10:06:03;;;;;;;9.32;6.05;;;8.10;99.90;;;;;;5124574;28;20228;-38
2021/03/26 10:08:56;;;;;;;8.13;5.15;;;8.10;99.90;;;;;;5124222;28;20195;-38
2021/03/26 10:11:29;;;;;;;7.53;5.43;;;8.20;99.90;;;;;;5118445;28;20571;-39
2021/03/26 10:14:04;;;;;;;7.80;5.35;;;8.30;99.90;;;;;;5124811;28;20207;-38
2021/03/26 10:16:46;;;;;;;6.90;4.97;;;8.30;99.90;;;;;;5123190;28;20215;-38
2021/03/26 10:19:18;;;;;;;7.07;4.47;;;8.20;99.90;;;;;;5113124;28;20231;-38
2021/03/26 10:21:54;;;;;;;6.85;4.57;;;8.20;99.90;;;;;;5124516;28;20208;-38
2021/03/26 10:24:29;;;;;;;8.35;4.70;;;8.10;99.90;;;;;;5122308;28;20204;-38
2021/03/26 10:27:10;;;;;;;10.75;4.80;;;8.00;99.90;;;;;;5123178;28;20199;-36
2021/03/26 10:29:48;;;;;;;7.82;4.70;;;8.00;99.90;;;;;;5125236;28;20199;-38
2021/03/26 10:32:23;;;;;;;8.30;4.32;;;8.10;99.90;;;;;;5123767;28;20203;-38
2021/03/26 10:34:55;;;;;;;7.25;4.57;;;8.00;99.90;;;;;;5121416;28;20207;-39
2021/03/26 10:37:41;;;;;;;8.27;4.53;;;8.00;99.90;;;;;;5123883;28;20214;-38
2021/03/26 10:40:25;;;;;;;8.07;5.15;;;8.00;99.90;;;;;;5123779;28;20305;-38
2021/03/26 10:43:09;;;;;;;6.80;4.40;;;7.90;99.90;;;;;;5122845;28;20296;-38
2021/03/26 10:45:54;;;;;;;5.00;3.60;;;7.90;99.90;;;;;;5124254;28;20637;-38
2021/03/26 10:48:46;;;;;;;6.35;4.32;;;7.90;99.90;;;;;;5120702;28;20271;-38
2021/03/26 10:51:34;;;;;;;9.70;4.78;;;8.10;99.90;;;;;;5124127;28;20221;-38
2021/03/26 10:54:19;;;;;;;8.40;4.07;;;8.00;99.90;;;;;;5124773;28;20278;-38
2021/03/26 10:57:12;;;;;;;9.35;4.75;;;8.00;99.90;;;;;;5121766;28;20226;-38
2021/03/26 10:59:55;;;;;;;10.10;4.68;;;7.90;99.90;;;;;;5121580;28;20224;-38
2021/03/26 11:02:47;;;;;;;8.85;3.95;;;7.90;99.90;;;;;;5123727;28;20237;-38
2021/03/26 11:05:26;;;;;;;3.78;3.40;;;7.80;99.90;;;;;;5110443;28;20203;-38
2021/03/26 11:08:31;;;;;;;9.07;3.70;;;7.80;99.90;;;;;;5123449;28;20516;-38
2021/03/26 11:11:16;;;;;;;7.82;4.10;;;7.80;99.90;;;;;;5119787;28;20237;-38
2021/03/26 11:14:19;;;;;;;4.20;3.80;;;7.80;99.90;;;;;;5113647;28;20635;-38
2021/03/26 11:17:00;;;;;;;8.40;3.85;;;7.80;99.90;;;;;;5120836;28;20221;-38
2021/03/26 11:19:35;;;;;;;6.35;3.72;;;7.80;99.90;;;;;;5122990;28;20227;-38
2021/03/26 11:22:14;;;;;;;4.20;3.40;;;7.70;99.90;;;;;;5123053;28;20203;-38
2021/03/26 11:25:01;;;;;;;8.65;3.90;;;7.70;99.90;;;;;;5121788;28;20214;-38
2021/03/26 11:27:44;;;;;;;11.27;4.43;;;7.70;99.90;;;;;;5122298;28;20568;-38
2021/03/26 11:30:23;;;;;;;10.00;4.40;;;7.70;99.90;;;;;;5123243;28;20207;-38
2021/03/26 11:33:00;;;;;;;4.25;3.10;;;7.70;99.90;;;;;;5122654;28;20199;-38
2021/03/26 11:35:36;;;;;;;7.18;4.07;;;7.60;99.90;;;;;;5123184;28;20212;-38
2021/03/26 11:38:13;;;;;;;7.03;3.80;;;7.50;99.90;;;;;;5122571;28;20256;-38
2021/03/26 11:40:48;;;;;;;5.05;4.18;;;7.60;99.90;;;;;;5120039;28;20364;-38
2021/03/26 11:43:21;;;;;;;6.65;3.45;;;7.60;99.90;;;;;;5121261;28;20223;-38
2021/03/26 11:46:01;;;;;;;9.60;3.47;;;7.70;99.90;;;;;;5123144;28;20249;-38
2021/03/26 11:48:49;;;;;;;7.22;3.25;;;7.60;99.90;;;;;;5115445;28;20256;-37
2021/03/26 11:51:30;;;;;;;4.65;3.50;;;7.50;99.90;;;;;;5119695;28;20203;-38
2021/03/26 11:54:11;;;;;;;4.60;3.75;;;7.50;99.90;;;;;;5122666;28;20195;-38
2021/03/26 11:56:52;;;;;;;7.10;3.20;;;7.40;99.90;;;;;;5122163;28;20203;-38
2021/03/26 11:59:51;;;;;;;10.48;4.35;;;7.40;99.90;;;;;;5123085;28;20223;-38
2021/03/26 12:02:48;;;;;;;4.55;3.45;;;7.40;99.90;;;;;;5122402;28;20300;-38
2021/03/26 12:05:31;;;;;;;14.45;3.85;;;7.40;99.90;;;;;;5119110;28;20211;-38
2021/03/26 12:08:26;;;;;;;5.03;3.40;;;7.40;99.90;;;;;;5120512;28;20203;-38
2021/03/26 12:11:01;;;;;;;7.50;3.50;;;7.30;99.90;;;;;;5122290;28;20204;-38
2021/03/26 12:13:35;;;;;;;7.20;3.55;;;7.40;99.90;;;;;;5121940;28;20244;-37
2021/03/26 12:16:14;;;;;;;8.35;3.53;;;7.50;99.90;;;;;;5123038;28;20195;-38
2021/03/26 12:18:51;;;;;;;6.38;4.15;;;7.40;99.90;;;;;;5122413;28;20218;-38
2021/03/26 12:21:46;;;;;;;8.95;4.32;;;7.30;99.90;;;;;;5121062;28;20200;-38
2021/03/26 12:24:26;;;;;;;8.93;3.28;;;7.30;99.90;;;;;;5113901;28;20654;-38
2021/03/26 12:27:14;;;;;;;11.50;4.45;;;7.30;99.90;;;;;;5121410;28;20214;-38
2021/03/26 12:29:51;;;;;;;7.95;3.50;;;7.40;99.90;;;;;;5120026;28;20204;-38
2021/03/26 12:32:31;;;;;;;4.78;3.35;;;7.40;99.90;;;;;;5107616;28;20206;-38
2021/03/26 12:35:20;;;;;;;4.72;2.80;;;7.40;99.90;;;;;;5126485;28;20207;-39
2021/03/26 12:37:59;;;;;;;5.78;3.63;;;7.30;99.90;;;;;;5125579;28;20200;-37
2021/03/26 12:41:08;;;;;;;5.60;3.30;;;7.30;99.90;;;;;;5117094;28;20219;-38
2021/03/26 12:43:52;;;;;;;6.47;3.78;;;7.30;99.90;;;;;;5125764;28;20242;-38
2021/03/26 12:46:50;;;;;;;9.35;2.83;;;7.30;99.90;;;;;;5127158;27;20249;-38
2021/03/26 12:49:25;;;;;;;7.03;2.85;;;7.20;99.90;;;;;;5125318;28;20207;-38
2021/03/26 12:52:00;;;;;;;9.23;3.67;;;7.30;99.90;;;;;;5125969;28;20237;-38
2021/03/26 12:54:36;;;;;;;6.45;3.05;;;7.20;99.90;;;;;;5125809;28;20213;-38
2021/03/26 12:57:13;;;;;;;8.65;3.88;;;7.20;99.90;;;;;;5125275;28;20199;-38
2021/03/26 12:59:46;;;;;;;7.03;2.83;;;7.30;99.90;;;;;;5125606;28;20249;-38
2021/03/26 13:02:25;;;;;;;6.07;4.13;;;7.20;99.90;;;;;;5123986;28;20208;-37
2021/03/26 13:05:01;;;;;;;7.50;3.00;;;7.20;99.90;;;;;;5125748;28;20195;-38
2021/03/26 13:07:43;;;;;;;8.60;3.80;;;7.10;99.90;;;;;;5125909;28;20651;-38
2021/03/26 13:10:30;;;;;;;7.18;2.85;;;7.20;99.90;;;;;;5124495;28;20232;-38
2021/03/26 13:13:19;;;;;;;9.45;3.63;;;7.20;99.90;;;;;;5124917;28;20204;-38
2021/03/26 13:16:21;;;;;;;6.40;4.10;;;7.20;99.90;;;;;;5125640;28;20204;-38
2021/03/26 13:18:57;;;;;;;6.72;3.60;;;7.20;99.90;;;;;;5109859;28;20227;-38
2021/03/26 13:21:41;;;;;;;8.48;4.03;;;7.20;99.90;;;;;;5125172;28;20302;-37
2021/03/26 13:24:31;;;;;;;8.88;4.13;;;7.30;99.90;;;;;;5123530;28;20261;-37
2021/03/26 13:27:27;;;;;;;5.85;3.58;;;7.20;99.90;;;;;;5121275;28;20309;-38
2021/03/26 13:30:15;;;;;;;6.22;3.60;;;7.20;99.90;;;;;;5124759;28;20294;-38
2021/03/26 13:33:05;;;;;;;8.38;3.90;;;7.10;99.90;;;;;;5111456;28;20248;-37
2021/03/26 13:35:41;;;;;;;9.93;4.38;;;7.10;99.90;;;;;;5125851;28;20216;-38
2021/03/26 13:38:40;;;;;;;6.28;4.30;;;7.00;99.90;;;;;;5125185;28;20209;-38
2021/03/26 13:41:21;;;;;;;6.13;4.35;;;7.00;99.90;;;;;;5116481;28;20227;-38
2021/03/26 13:44:28;;;;;;;8.35;3.97;;;7.00;99.90;;;;;;5123844;28;20256;-38
2021/03/26 13:47:08;;;;;;;8.15;4.45;;;7.10;99.90;;;;;;5124345;28;20204;-37
2021/03/26 13:49:55;;;;;;;5.53;4.05;;;7.10;99.90;;;;;;5124659;28;20214;-38
2021/03/26 13:52:35;;;;;;;6.60;4.65;;;7.00;99.90;;;;;;5111100;28;20227;-38
2021/03/26 13:55:16;;;;;;;12.00;4.28;;;7.00;99.90;;;;;;5124609;28;20271;-38
2021/03/26 13:57:48;;;;;;;7.35;4.70;;;6.90;99.90;;;;;;5122658;28;20216;-37
2021/03/26 14:00:23;;;;;;;8.52;5.35;;;6.90;99.90;;;;;;5124534;28;20694;-37
2021/03/26 14:03:02;;;;;;;8.32;4.75;;;6.90;99.90;;;;;;5115496;28;20529;-38
2021/03/26 14:05:46;;;;;;;7.72;5.05;;;6.90;99.90;;;;;;5125028;28;20299;-38
2021/03/26 14:08:25;;;;;;;11.25;4.70;;;7.00;99.90;;;;;;5124567;28;20204;-38
2021/03/26 14:11:17;;;;;;;7.35;4.53;;;7.10;99.90;;;;;;5124425;28;20280;-38